sensor_id;sensor_type;location;lat;lon;timestamp;pressure;altitude;pressure_sealevel;temperature;humidity
46724;BME280;32463;48.298;11.620;2023-11-21T00:00:23;95807.31;;;6.04;100.00
46724;BME280;32463;48.298;11.620;2023-11-21T00:02:50;95801.50;;;6.02;100.00
46724;BME280;32463;48.298;11.620;2023-11-21T00:05:16;95790.97;;;5.96;100.00
46724;BME280;32463;48.298;11.620;2023-11-21T00:07:43;95794.53;;;6.13;100.00
46724;BME280;32463;48.298;11.620;2023-11-21T00:10:10;95791.22;;;6.02;100.00
46724;BME280;32463;48.298;11.620;2023-11-21T00:12:39;95780.22;;;6.10;100.00
46724;BME280;32463;48.298;11.620;2023-11-21T00:15:07;95789.38;;;6.13;100.00
46724;BME280;32463;48.298;11.620;2023-11-21T00:17:37;95788.28;;;6.15;100.00
46724;BME280;32463;48.298;11.620;2023-11-21T00:20:05;95793.50;;;6.05;100.00
46724;BME280;32463;48.298;11.620;2023-11-21T00:22:35;95791.59;;;6.07;100.00
46724;BME280;32463;48.298;11.620;2023-11-21T00:25:02;95778.59;;;6.09;100.00
46724;BME280;32463;48.298;11.620;2023-11-21T00:27:30;95787.75;;;6.12;100.00
46724;BME280;32463;48.298;11.620;2023-11-21T00:29:57;95778.00;;;6.15;100.00
46724;BME280;32463;48.298;11.620;2023-11-21T00:32:23;95784.22;;;6.13;100.00
46724;BME280;32463;48.298;11.620;2023-11-21T00:34:50;95777.47;;;6.12;100.00
46724;BME280;32463;48.298;11.620;2023-11-21T00:37:16;95769.59;;;6.13;100.00
46724;BME280;32463;48.298;11.620;2023-11-21T00:39:43;95762.03;;;6.12;100.00
46724;BME280;32463;48.298;11.620;2023-11-21T00:42:09;95775.69;;;6.12;100.00
46724;BME280;32463;48.298;11.620;2023-11-21T00:44:38;95765.59;;;6.11;100.00
46724;BME280;32463;48.298;11.620;2023-11-21T00:47:04;95764.31;;;6.15;100.00
46724;BME280;32463;48.298;11.620;2023-11-21T00:49:31;95758.50;;;6.13;100.00
46724;BME280;32463;48.298;11.620;2023-11-21T00:51:58;95758.22;;;6.16;100.00
46724;BME280;32463;48.298;11.620;2023-11-21T00:54:27;95754.69;;;6.17;100.00
46724;BME280;32463;48.298;11.620;2023-11-21T00:56:53;95748.97;;;6.23;100.00
46724;BME280;32463;48.298;11.620;2023-11-21T00:59:20;95750.56;;;6.24;100.00
46724;BME280;32463;48.298;11.620;2023-11-21T01:01:48;95758.63;;;6.38;100.00
46724;BME280;32463;48.298;11.620;2023-11-21T01:04:14;95753.25;;;6.32;100.00
46724;BME280;32463;48.298;11.620;2023-11-21T01:06:41;95740.44;;;6.40;100.00
46724;BME280;32463;48.298;11.620;2023-11-21T01:09:07;95745.88;;;6.37;100.00
46724;BME280;32463;48.298;11.620;2023-11-21T01:11:35;95738.53;;;6.24;100.00
46724;BME280;32463;48.298;11.620;2023-11-21T01:14:05;95747.63;;;6.19;100.00
46724;BME280;32463;48.298;11.620;2023-11-21T01:16:34;95751.72;;;6.12;100.00
46724;BME280;32463;48.298;11.620;2023-11-21T01:19:01;95750.06;;;6.02;100.00
46724;BME280;32463;48.298;11.620;2023-11-21T01:21:27;95751.56;;;5.95;100.00
46724;BME280;32463;48.298;11.620;2023-11-21T01:23:54;95757.69;;;5.94;100.00
46724;BME280;32463;48.298;11.620;2023-11-21T01:26:21;95762.81;;;5.94;100.00
46724;BME280;32463;48.298;11.620;2023-11-21T01:28:47;95756.44;;;5.98;100.00
46724;BME280;32463;48.298;11.620;2023-11-21T01:31:17;95761.00;;;6.04;100.00
46724;BME280;32463;48.298;11.620;2023-11-21T01:33:44;95761.00;;;6.04;100.00
46724;BME280;32463;48.298;11.620;2023-11-21T01:36:11;95766.88;;;6.15;100.00
46724;BME280;32463;48.298;11.620;2023-11-21T01:38:37;95764.34;;;6.32;100.00
46724;BME280;32463;48.298;11.620;2023-11-21T01:41:04;95762.94;;;6.20;100.00
46724;BME280;32463;48.298;11.620;2023-11-21T01:43:31;95758.50;;;6.13;100.00
46724;BME280;32463;48.298;11.620;2023-11-21T01:45:58;95762.03;;;6.12;100.00
46724;BME280;32463;48.298;11.620;2023-11-21T01:48:25;95762.63;;;6.05;100.00
46724;BME280;32463;48.298;11.620;2023-11-21T01:50:53;95764.53;;;6.03;100.00
46724;BME280;32463;48.298;11.620;2023-11-21T01:53:20;95776.72;;;6.01;100.00
46724;BME280;32463;48.298;11.620;2023-11-21T01:55:46;95772.53;;;6.00;100.00
46724;BME280;32463;48.298;11.620;2023-11-21T01:58:13;95777.94;;;6.07;100.00
46724;BME280;32463;48.298;11.620;2023-11-21T02:00:40;95775.78;;;6.02;100.00
46724;BME280;32463;48.298;11.620;2023-11-21T02:03:06;95776.97;;;6.08;100.00
46724;BME280;32463;48.298;11.620;2023-11-21T02:05:33;95774.25;;;6.10;100.00
46724;BME280;32463;48.298;11.620;2023-11-21T02:08:00;95779.16;;;6.03;100.00
46724;BME280;32463;48.298;11.620;2023-11-21T02:10:28;95782.97;;;5.99;100.00
46724;BME280;32463;48.298;11.620;2023-11-21T02:12:56;95783.78;;;5.99;100.00
46724;BME280;32463;48.298;11.620;2023-11-21T02:15:23;95788.66;;;6.02;100.00
46724;BME280;32463;48.298;11.620;2023-11-21T02:17:54;95789.97;;;6.06;100.00
46724;BME280;32463;48.298;11.620;2023-11-21T02:20:23;95786.75;;;6.04;100.00
46724;BME280;32463;48.298;11.620;2023-11-21T02:22:56;95787.41;;;6.06;100.00
46724;BME280;32463;48.298;11.620;2023-11-21T02:25:25;95787.84;;;6.02;100.00
46724;BME280;32463;48.298;11.620;2023-11-21T02:27:53;95784.03;;;6.06;100.00
46724;BME280;32463;48.298;11.620;2023-11-21T02:30:23;95779.09;;;6.13;100.00
46724;BME280;32463;48.298;11.620;2023-11-21T02:32:51;95776.72;;;6.01;100.00
46724;BME280;32463;48.298;11.620;2023-11-21T02:35:23;95778.50;;;6.19;100.00
46724;BME280;32463;48.298;11.620;2023-11-21T02:37:51;95763.97;;;6.10;100.00
46724;BME280;32463;48.298;11.620;2023-11-21T02:40:18;95770.19;;;6.07;100.00
46724;BME280;32463;48.298;11.620;2023-11-21T02:42:46;95757.47;;;6.05;100.00
46724;BME280;32463;48.298;11.620;2023-11-21T02:45:14;95755.88;;;6.04;100.00
46724;BME280;32463;48.298;11.620;2023-11-21T02:47:42;95754.25;;;6.03;100.00
46724;BME280;32463;48.298;11.620;2023-11-21T02:50:09;95751.38;;;6.06;100.00
46724;BME280;32463;48.298;11.620;2023-11-21T02:52:36;95753.19;;;5.96;100.00
46724;BME280;32463;48.298;11.620;2023-11-21T02:55:03;95751.25;;;6.08;100.00
46724;BME280;32463;48.298;11.620;2023-11-21T02:57:30;95752.25;;;5.97;100.00
46724;BME280;32463;48.298;11.620;2023-11-21T02:59:56;95753.72;;;6.00;100.00
46724;BME280;32463;48.298;11.620;2023-11-21T03:02:22;95756.72;;;5.95;100.00
46724;BME280;32463;48.298;11.620;2023-11-21T03:04:49;95750.72;;;6.04;100.00
46724;BME280;32463;48.298;11.620;2023-11-21T03:07:16;95751.53;;;6.05;100.00
46724;BME280;32463;48.298;11.620;2023-11-21T03:09:45;95753.63;;;5.92;100.00
46724;BME280;32463;48.298;11.620;2023-11-21T03:12:11;95758.63;;;5.93;100.00
46724;BME280;32463;48.298;11.620;2023-11-21T03:14:39;95757.38;;;5.97;100.00
46724;BME280;32463;48.298;11.620;2023-11-21T03:17:06;95761.34;;;5.92;100.00
46724;BME280;32463;48.298;11.620;2023-11-21T03:19:32;95756.72;;;5.95;100.00
46724;BME280;32463;48.298;11.620;2023-11-21T03:21:58;95761.72;;;5.97;100.00
46724;BME280;32463;48.298;11.620;2023-11-21T03:24:25;95761.88;;;5.95;100.00
46724;BME280;32463;48.298;11.620;2023-11-21T03:26:52;95751.84;;;5.92;100.00
46724;BME280;32463;48.298;11.620;2023-11-21T03:29:18;95752.25;;;5.88;100.00
46724;BME280;32463;48.298;11.620;2023-11-21T03:31:44;95757.00;;;5.83;100.00
46724;BME280;32463;48.298;11.620;2023-11-21T03:34:16;95755.94;;;5.85;100.00
46724;BME280;32463;48.298;11.620;2023-11-21T03:36:43;95752.16;;;5.89;100.00
46724;BME280;32463;48.298;11.620;2023-11-21T03:39:11;95759.09;;;5.79;100.00
46724;BME280;32463;48.298;11.620;2023-11-21T03:41:38;95755.94;;;5.85;100.00
46724;BME280;32463;48.298;11.620;2023-11-21T03:44:04;95745.09;;;5.91;100.00
46724;BME280;32463;48.298;11.620;2023-11-21T03:46:31;95744.25;;;6.00;100.00
46724;BME280;32463;48.298;11.620;2023-11-21T03:48:57;95740.50;;;5.85;100.00
46724;BME280;32463;48.298;11.620;2023-11-21T03:51:23;95742.19;;;5.77;100.00
46724;BME280;32463;48.298;11.620;2023-11-21T03:53:50;95741.28;;;5.95;100.00
46724;BME280;32463;48.298;11.620;2023-11-21T03:56:16;95737.75;;;5.96;100.00
46724;BME280;32463;48.298;11.620;2023-11-21T03:58:43;95748.81;;;5.79;100.00
46724;BME280;32463;48.298;11.620;2023-11-21T04:01:09;95743.16;;;5.66;100.00
46724;BME280;32463;48.298;11.620;2023-11-21T04:03:36;95745.78;;;5.56;100.00
46724;BME280;32463;48.298;11.620;2023-11-21T04:06:03;95746.06;;;5.53;100.00
46724;BME280;32463;48.298;11.620;2023-11-21T04:08:31;95747.78;;;5.35;100.00
46724;BME280;32463;48.298;11.620;2023-11-21T04:10:58;95748.06;;;5.22;100.00
46724;BME280;32463;48.298;11.620;2023-11-21T04:13:26;95741.88;;;5.15;100.00
46724;BME280;32463;48.298;11.620;2023-11-21T04:15:52;95758.53;;;5.11;100.00
46724;BME280;32463;48.298;11.620;2023-11-21T04:18:19;95751.09;;;5.08;100.00
46724;BME280;32463;48.298;11.620;2023-11-21T04:20:46;95747.31;;;5.12;100.00
46724;BME280;32463;48.298;11.620;2023-11-21T04:23:12;95746.78;;;4.99;100.00
46724;BME280;32463;48.298;11.620;2023-11-21T04:25:39;95744.63;;;4.94;100.00
46724;BME280;32463;48.298;11.620;2023-11-21T04:28:06;95745.47;;;4.85;100.00
46724;BME280;32463;48.298;11.620;2023-11-21T04:30:32;95746.16;;;4.78;100.00
46724;BME280;32463;48.298;11.620;2023-11-21T04:32:59;95746.56;;;4.73;100.00
46724;BME280;32463;48.298;11.620;2023-11-21T04:35:25;95749.53;;;4.68;100.00
46724;BME280;32463;48.298;11.620;2023-11-21T04:37:52;95754.66;;;4.68;100.00
46724;BME280;32463;48.298;11.620;2023-11-21T04:40:18;95751.97;;;4.80;100.00
46724;BME280;32463;48.298;11.620;2023-11-21T04:42:46;95755.47;;;4.88;100.00
46724;BME280;32463;48.298;11.620;2023-11-21T04:45:13;95754.81;;;4.86;100.00
46724;BME280;32463;48.298;11.620;2023-11-21T04:47:39;95753.81;;;4.97;100.00
46724;BME280;32463;48.298;11.620;2023-11-21T04:50:06;95763.53;;;5.03;100.00
46724;BME280;32463;48.298;11.620;2023-11-21T04:52:32;95759.22;;;5.03;100.00
46724;BME280;32463;48.298;11.620;2023-11-21T04:55:00;95759.06;;;5.05;100.00
46724;BME280;32463;48.298;11.620;2023-11-21T04:57:27;95759.19;;;5.13;100.00
46724;BME280;32463;48.298;11.620;2023-11-21T04:59:54;95766.44;;;5.27;100.00
46724;BME280;32463;48.298;11.620;2023-11-21T05:02:21;95752.97;;;5.16;100.00
46724;BME280;32463;48.298;11.620;2023-11-21T05:04:47;95757.31;;;5.15;100.00
46724;BME280;32463;48.298;11.620;2023-11-21T05:07:14;95756.09;;;5.19;100.00
46724;BME280;32463;48.298;11.620;2023-11-21T05:09:44;95754.81;;;5.23;100.00
46724;BME280;32463;48.298;11.620;2023-11-21T05:12:12;95756.09;;;5.19;100.00
46724;BME280;32463;48.298;11.620;2023-11-21T05:14:39;95759.19;;;5.13;100.00
46724;BME280;32463;48.298;11.620;2023-11-21T05:17:07;95761.88;;;5.21;100.00
46724;BME280;32463;48.298;11.620;2023-11-21T05:19:34;95758.66;;;5.19;100.00
46724;BME280;32463;48.298;11.620;2023-11-21T05:22:01;95770.81;;;5.17;100.00
46724;BME280;32463;48.298;11.620;2023-11-21T05:24:28;95765.97;;;5.14;100.00
46724;BME280;32463;48.298;11.620;2023-11-21T05:26:54;95768.25;;;5.17;100.00
46724;BME280;32463;48.298;11.620;2023-11-21T05:29:21;95756.50;;;5.15;100.00
46724;BME280;32463;48.298;11.620;2023-11-21T05:31:47;95767.53;;;5.34;100.00
46724;BME280;32463;48.298;11.620;2023-11-21T05:34:14;95763.75;;;5.29;100.00
46724;BME280;32463;48.298;11.620;2023-11-21T05:36:43;95767.25;;;5.37;100.00
46724;BME280;32463;48.298;11.620;2023-11-21T05:39:11;95765.34;;;5.39;100.00
46724;BME280;32463;48.298;11.620;2023-11-21T05:41:37;95767.22;;;5.47;100.00
46724;BME280;32463;48.298;11.620;2023-11-21T05:44:04;95768.59;;;5.41;100.00
46724;BME280;32463;48.298;11.620;2023-11-21T05:46:30;95775.38;;;5.33;100.00
46724;BME280;32463;48.298;11.620;2023-11-21T05:48:57;95772.00;;;5.32;100.00
46724;BME280;32463;48.298;11.620;2023-11-21T05:51:23;95777.53;;;5.28;100.00
46724;BME280;32463;48.298;11.620;2023-11-21T05:53:50;95773.88;;;5.30;100.00
46724;BME280;32463;48.298;11.620;2023-11-21T05:56:16;95775.38;;;5.23;100.00
46724;BME280;32463;48.298;11.620;2023-11-21T05:58:43;95768.94;;;5.19;100.00
46724;BME280;32463;48.298;11.620;2023-11-21T06:01:09;95767.84;;;5.12;100.00
46724;BME280;32463;48.298;11.620;2023-11-21T06:03:38;95775.97;;;5.07;100.00
46724;BME280;32463;48.298;11.620;2023-11-21T06:06:05;95774.34;;;5.06;100.00
46724;BME280;32463;48.298;11.620;2023-11-21T06:08:32;95765.72;;;4.98;100.00
46724;BME280;32463;48.298;11.620;2023-11-21T06:10:58;95769.50;;;4.94;100.00
46724;BME280;32463;48.298;11.620;2023-11-21T06:13:24;95786.00;;;4.91;100.00
46724;BME280;32463;48.298;11.620;2023-11-21T06:15:51;95795.03;;;4.95;100.00
46724;BME280;32463;48.298;11.620;2023-11-21T06:18:17;95795.75;;;4.88;100.00
46724;BME280;32463;48.298;11.620;2023-11-21T06:20:46;95798.97;;;4.90;100.00
46724;BME280;32463;48.298;11.620;2023-11-21T06:23:12;95801.28;;;4.73;100.00
46724;BME280;32463;48.298;11.620;2023-11-21T06:25:39;95803.72;;;4.75;100.00
46724;BME280;32463;48.298;11.620;2023-11-21T06:28:05;95804.81;;;4.72;100.00
46724;BME280;32463;48.298;11.620;2023-11-21T06:30:32;95798.88;;;4.82;100.00
46724;BME280;32463;48.298;11.620;2023-11-21T06:32:58;95813.31;;;4.83;100.00
46724;BME280;32463;48.298;11.620;2023-11-21T06:35:26;95813.84;;;4.96;100.00
46724;BME280;32463;48.298;11.620;2023-11-21T06:37:55;95814.59;;;5.25;100.00
46724;BME280;32463;48.298;11.620;2023-11-21T06:40:22;95808.34;;;5.47;100.00
46724;BME280;32463;48.298;11.620;2023-11-21T06:42:49;95819.13;;;5.51;100.00
46724;BME280;32463;48.298;11.620;2023-11-21T06:45:16;95820.75;;;5.52;100.00
46724;BME280;32463;48.298;11.620;2023-11-21T06:47:43;95823.72;;;5.57;100.00
46724;BME280;32463;48.298;11.620;2023-11-21T06:50:10;95822.88;;;5.66;100.00
46724;BME280;32463;48.298;11.620;2023-11-21T06:52:37;95826.31;;;5.84;100.00
46724;BME280;32463;48.298;11.620;2023-11-21T06:55:03;95830.66;;;5.93;100.00
46724;BME280;32463;48.298;11.620;2023-11-21T06:57:31;95826.75;;;5.89;100.00
46724;BME280;32463;48.298;11.620;2023-11-21T06:59:57;95826.91;;;5.78;100.00
46724;BME280;32463;48.298;11.620;2023-11-21T07:02:24;95829.50;;;5.78;100.00
46724;BME280;32463;48.298;11.620;2023-11-21T07:04:50;95831.31;;;5.86;100.00
46724;BME280;32463;48.298;11.620;2023-11-21T07:07:18;95832.47;;;5.73;100.00
46724;BME280;32463;48.298;11.620;2023-11-21T07:09:45;95838.81;;;5.79;100.00
46724;BME280;32463;48.298;11.620;2023-11-21T07:12:11;95840.94;;;5.84;100.00
46724;BME280;32463;48.298;11.620;2023-11-21T07:14:39;95838.44;;;5.74;100.00
46724;BME280;32463;48.298;11.620;2023-11-21T07:17:08;95844.91;;;5.78;100.00
46724;BME280;32463;48.298;11.620;2023-11-21T07:19:34;95844.72;;;5.99;100.00
46724;BME280;32463;48.298;11.620;2023-11-21T07:22:01;95846.88;;;6.03;100.00
46724;BME280;32463;48.298;11.620;2023-11-21T07:24:28;95848.22;;;6.07;100.00
46724;BME280;32463;48.298;11.620;2023-11-21T07:26:57;95845.91;;;6.04;100.00
46724;BME280;32463;48.298;11.620;2023-11-21T07:29:24;95848.88;;;6.10;100.00
46724;BME280;32463;48.298;11.620;2023-11-21T07:31:52;95849.47;;;6.21;100.00
46724;BME280;32463;48.298;11.620;2023-11-21T07:34:20;95846.81;;;6.13;100.00
46724;BME280;32463;48.298;11.620;2023-11-21T07:36:47;95855.16;;;6.25;100.00
46724;BME280;32463;48.298;11.620;2023-11-21T07:39:13;95855.91;;;6.35;100.00
46724;BME280;32463;48.298;11.620;2023-11-21T07:41:41;95862.94;;;6.60;100.00
46724;BME280;32463;48.298;11.620;2023-11-21T07:44:14;95862.63;;;6.46;100.00
46724;BME280;32463;48.298;11.620;2023-11-21T07:46:40;95862.91;;;6.42;100.00
46724;BME280;32463;48.298;11.620;2023-11-21T07:49:07;95858.47;;;6.62;100.00
46724;BME280;32463;48.298;11.620;2023-11-21T07:51:34;95869.00;;;6.69;100.00
46724;BME280;32463;48.298;11.620;2023-11-21T07:54:00;95869.56;;;6.63;100.00
46724;BME280;32463;48.298;11.620;2023-11-21T07:56:27;95873.63;;;6.65;100.00
46724;BME280;32463;48.298;11.620;2023-11-21T07:58:53;95862.00;;;6.61;100.00
46724;BME280;32463;48.298;11.620;2023-11-21T08:01:19;95866.75;;;6.56;100.00
46724;BME280;32463;48.298;11.620;2023-11-21T08:03:46;95868.25;;;6.59;100.00
46724;BME280;32463;48.298;11.620;2023-11-21T08:06:16;95871.91;;;6.56;100.00
46724;BME280;32463;48.298;11.620;2023-11-21T08:08:43;95864.91;;;6.49;100.00
46724;BME280;32463;48.298;11.620;2023-11-21T08:11:09;95863.56;;;6.45;100.00
46724;BME280;32463;48.298;11.620;2023-11-21T08:13:36;95866.84;;;6.64;100.00
46724;BME280;32463;48.298;11.620;2023-11-21T08:16:02;95868.84;;;6.43;100.00
46724;BME280;32463;48.298;11.620;2023-11-21T08:18:30;95864.84;;;6.40;100.00
46724;BME280;32463;48.298;11.620;2023-11-21T08:20:57;95864.59;;;6.34;100.00
46724;BME280;32463;48.298;11.620;2023-11-21T08:23:23;95862.69;;;6.36;100.00
46724;BME280;32463;48.298;11.620;2023-11-21T08:25:51;95862.97;;;6.33;100.00
46724;BME280;32463;48.298;11.620;2023-11-21T08:28:18;95867.59;;;6.29;100.00
46724;BME280;32463;48.298;11.620;2023-11-21T08:30:45;95862.22;;;6.23;100.00
46724;BME280;32463;48.298;11.620;2023-11-21T08:33:11;95870.59;;;6.25;100.00
46724;BME280;32463;48.298;11.620;2023-11-21T08:35:38;95864.53;;;6.43;100.00
46724;BME280;32463;48.298;11.620;2023-11-21T08:38:04;95863.03;;;6.68;100.00
46724;BME280;32463;48.298;11.620;2023-11-21T08:40:31;95863.31;;;6.83;100.00
46724;BME280;32463;48.298;11.620;2023-11-21T08:42:57;95855.47;;;7.02;100.00
46724;BME280;32463;48.298;11.620;2023-11-21T08:45:25;95863.47;;;6.82;100.00
46724;BME280;32463;48.298;11.620;2023-11-21T08:47:52;95859.47;;;7.05;100.00
46724;BME280;32463;48.298;11.620;2023-11-21T08:50:18;95872.53;;;6.86;100.00
46724;BME280;32463;48.298;11.620;2023-11-21T08:52:45;95868.38;;;6.75;100.00
46724;BME280;32463;48.298;11.620;2023-11-21T08:55:12;95872.59;;;6.58;100.00
46724;BME280;32463;48.298;11.620;2023-11-21T08:57:39;95875.44;;;6.55;100.00
46724;BME280;32463;48.298;11.620;2023-11-21T09:00:07;95870.38;;;6.63;100.00
46724;BME280;32463;48.298;11.620;2023-11-21T09:02:39;95872.72;;;6.74;100.00
46724;BME280;32463;48.298;11.620;2023-11-21T09:05:07;95878.53;;;6.76;100.00
46724;BME280;32463;48.298;11.620;2023-11-21T09:07:35;95882.75;;;7.13;100.00
46724;BME280;32463;48.298;11.620;2023-11-21T09:10:02;95874.59;;;7.61;100.00
46724;BME280;32463;48.298;11.620;2023-11-21T09:12:29;95881.69;;;8.19;100.00
46724;BME280;32463;48.298;11.620;2023-11-21T09:14:57;95879.16;;;8.77;100.00
46724;BME280;32463;48.298;11.620;2023-11-21T09:17:24;95882.09;;;9.23;100.00
46724;BME280;32463;48.298;11.620;2023-11-21T09:19:50;95872.88;;;9.69;100.00
46724;BME280;32463;48.298;11.620;2023-11-21T09:22:17;95868.06;;;10.22;100.00
46724;BME280;32463;48.298;11.620;2023-11-21T09:24:44;95868.44;;;10.80;100.00
46724;BME280;32463;48.298;11.620;2023-11-21T09:27:10;95879.88;;;11.17;100.00
46724;BME280;32463;48.298;11.620;2023-11-21T09:29:37;95889.78;;;11.13;100.00
46724;BME280;32463;48.298;11.620;2023-11-21T09:32:05;95886.38;;;10.20;100.00
46724;BME280;32463;48.298;11.620;2023-11-21T09:34:34;95892.47;;;9.39;100.00
46724;BME280;32463;48.298;11.620;2023-11-21T09:37:03;95888.88;;;9.57;100.00
46724;BME280;32463;48.298;11.620;2023-11-21T09:39:31;95891.16;;;9.68;100.00
46724;BME280;32463;48.298;11.620;2023-11-21T09:44:51;95894.59;;;10.32;100.00
46724;BME280;32463;48.298;11.620;2023-11-21T09:47:22;95887.69;;;11.09;100.00
46724;BME280;32463;48.298;11.620;2023-11-21T09:49:49;95885.63;;;11.50;100.00
46724;BME280;32463;48.298;11.620;2023-11-21T09:52:22;95885.09;;;12.36;100.00
46724;BME280;32463;48.298;11.620;2023-11-21T09:54:51;95888.50;;;12.07;100.00
46724;BME280;32463;48.298;11.620;2023-11-21T09:57:20;95885.94;;;12.22;100.00
46724;BME280;32463;48.298;11.620;2023-11-21T09:59:50;95878.47;;;12.85;100.00
46724;BME280;32463;48.298;11.620;2023-11-21T10:02:20;95874.28;;;12.84;100.00
46724;BME280;32463;48.298;11.620;2023-11-21T10:04:51;95885.44;;;12.48;100.00
46724;BME280;32463;48.298;11.620;2023-11-21T10:07:20;95884.53;;;11.97;100.00
46724;BME280;32463;48.298;11.620;2023-11-21T10:09:47;95890.56;;;11.60;100.00
46724;BME280;32463;48.298;11.620;2023-11-21T10:12:17;95888.72;;;11.45;100.00
46724;BME280;32463;48.298;11.620;2023-11-21T10:14:48;95885.06;;;10.94;100.00
46724;BME280;32463;48.298;11.620;2023-11-21T10:17:15;95895.75;;;10.21;100.00
46724;BME280;32463;48.298;11.620;2023-11-21T10:19:46;95893.38;;;9.79;100.00
46724;BME280;32463;48.298;11.620;2023-11-21T10:22:16;95892.41;;;9.96;100.00
46724;BME280;32463;48.298;11.620;2023-11-21T10:24:45;95886.03;;;10.23;100.00
46724;BME280;32463;48.298;11.620;2023-11-21T10:27:11;95886.50;;;10.27;100.00
46724;BME280;32463;48.298;11.620;2023-11-21T10:29:39;95885.00;;;10.71;100.00
46724;BME280;32463;48.298;11.620;2023-11-21T10:32:06;95889.31;;;10.48;100.00
46724;BME280;32463;48.298;11.620;2023-11-21T10:34:33;95892.41;;;10.83;100.00
46724;BME280;32463;48.298;11.620;2023-11-21T10:37:11;95881.03;;;10.61;100.00
46724;BME280;32463;48.298;11.620;2023-11-21T10:39:40;95884.75;;;10.58;100.00
46724;BME280;32463;48.298;11.620;2023-11-21T10:42:09;95892.09;;;10.77;100.00
46724;BME280;32463;48.298;11.620;2023-11-21T10:44:35;95895.25;;;10.26;100.00
46724;BME280;32463;48.298;11.620;2023-11-21T10:47:03;95899.63;;;10.25;100.00
46724;BME280;32463;48.298;11.620;2023-11-21T10:49:30;95894.59;;;10.16;100.00
46724;BME280;32463;48.298;11.620;2023-11-21T10:51:57;95896.06;;;10.10;100.00
46724;BME280;32463;48.298;11.620;2023-11-21T10:54:24;95899.88;;;9.59;100.00
46724;BME280;32463;48.298;11.620;2023-11-21T10:56:59;95896.00;;;9.55;100.00
46724;BME280;32463;48.298;11.620;2023-11-21T10:59:30;95891.97;;;9.68;100.00
46724;BME280;32463;48.298;11.620;2023-11-21T11:01:58;95891.94;;;9.76;100.00
46724;BME280;32463;48.298;11.620;2023-11-21T11:04:27;95887.88;;;9.82;100.00
46724;BME280;32463;48.298;11.620;2023-11-21T11:06:57;95886.63;;;9.78;100.00
46724;BME280;32463;48.298;11.620;2023-11-21T11:09:31;95880.47;;;9.71;100.00
46724;BME280;32463;48.298;11.620;2023-11-21T11:11:58;95880.78;;;9.76;100.00
46724;BME280;32463;48.298;11.620;2023-11-21T11:14:25;95886.25;;;9.89;100.00
46724;BME280;32463;48.298;11.620;2023-11-21T11:16:54;95880.47;;;9.71;100.00
46724;BME280;32463;48.298;11.620;2023-11-21T11:19:20;95876.69;;;9.90;100.00
46724;BME280;32463;48.298;11.620;2023-11-21T11:27:40;95875.81;;;10.13;100.00
46724;BME280;32463;48.298;11.620;2023-11-21T11:32:47;95883.34;;;10.48;100.00
46724;BME280;32463;48.298;11.620;2023-11-21T11:35:25;95876.25;;;10.72;100.00
46724;BME280;32463;48.298;11.620;2023-11-21T11:37:55;95873.44;;;10.51;100.00
46724;BME280;32463;48.298;11.620;2023-11-21T11:40:38;95870.69;;;11.29;100.00
46724;BME280;32463;48.298;11.620;2023-11-21T11:43:06;95874.41;;;11.50;100.00
46724;BME280;32463;48.298;11.620;2023-11-21T11:45:34;95873.91;;;11.92;100.00
46724;BME280;32463;48.298;11.620;2023-11-21T11:48:06;95873.97;;;12.28;100.00
46724;BME280;32463;48.298;11.620;2023-11-21T11:50:33;95863.00;;;12.98;100.00
46724;BME280;32463;48.298;11.620;2023-11-21T11:53:15;95859.56;;;12.40;100.00
46724;BME280;32463;48.298;11.620;2023-11-21T11:55:43;95864.69;;;12.19;100.00
46724;BME280;32463;48.298;11.620;2023-11-21T11:58:10;95868.72;;;12.21;100.00
46724;BME280;32463;48.298;11.620;2023-11-21T12:00:36;95869.78;;;12.12;100.00
46724;BME280;32463;48.298;11.620;2023-11-21T12:03:06;95872.53;;;11.81;100.00
46724;BME280;32463;48.298;11.620;2023-11-21T12:05:34;95878.47;;;10.84;100.00
46724;BME280;32463;48.298;11.620;2023-11-21T12:08:04;95879.59;;;10.50;100.00
46724;BME280;32463;48.298;11.620;2023-11-21T12:10:34;95888.84;;;9.81;100.00
46724;BME280;32463;48.298;11.620;2023-11-21T12:15:28;95872.22;;;9.51;100.00
46724;BME280;32463;48.298;11.620;2023-11-21T12:17:56;95883.09;;;9.47;100.00
46724;BME280;32463;48.298;11.620;2023-11-21T12:20:24;95881.13;;;9.49;100.00
46724;BME280;32463;48.298;11.620;2023-11-21T12:23:00;95874.00;;;9.51;100.00
46724;BME280;32463;48.298;11.620;2023-11-21T12:25:31;95875.31;;;9.47;100.00
46724;BME280;32463;48.298;11.620;2023-11-21T12:27:59;95879.38;;;9.41;100.00
46724;BME280;32463;48.298;11.620;2023-11-21T12:30:28;95872.06;;;9.20;100.00
46724;BME280;32463;48.298;11.620;2023-11-21T12:32:56;95880.00;;;9.02;100.00
46724;BME280;32463;48.298;11.620;2023-11-21T12:35:28;95869.78;;;8.93;100.00
46724;BME280;32463;48.298;11.620;2023-11-21T12:37:55;95874.63;;;8.88;100.00
46724;BME280;32463;48.298;11.620;2023-11-21T12:40:23;95875.44;;;8.80;100.00
46724;BME280;32463;48.298;11.620;2023-11-21T12:42:52;95877.03;;;8.73;100.00
46724;BME280;32463;48.298;11.620;2023-11-21T12:45:21;95874.16;;;8.92;100.00
46724;BME280;32463;48.298;11.620;2023-11-21T12:47:50;95881.13;;;9.00;100.00
46724;BME280;32463;48.298;11.620;2023-11-21T12:50:23;95884.69;;;9.31;100.00
46724;BME280;32463;48.298;11.620;2023-11-21T12:52:57;95891.47;;;9.49;100.00
46724;BME280;32463;48.298;11.620;2023-11-21T12:55:24;95890.00;;;9.54;100.00
46724;BME280;32463;48.298;11.620;2023-11-21T12:57:55;95894.56;;;9.28;100.00
46724;BME280;32463;48.298;11.620;2023-11-21T13:00:31;95898.25;;;9.01;100.00
46724;BME280;32463;48.298;11.620;2023-11-21T13:03:03;95900.88;;;8.51;100.00